Time,TemperatureF,DewpointF,PressureIn,WindDirection,WindDirectionDegrees,WindSpeedMPH,WindSpeedGustMPH,Humidity,HourlyPrecipIn,Conditions,Clouds,dailyrainin,SoftwareType,DateUTC
2013-02-24 00:01:00,40.0,6.0,29.75,South,169,3.0,8.0,24,0.00,,,0.00,,2013-02-24 06:01:00,
2013-02-24 00:11:00,40.0,6.0,29.75,South,169,3.0,8.0,24,0.00,,,0.00,,2013-02-24 06:11:00,
2013-02-24 00:21:00,52.0,3.0,29.67,WNW,284,5.0,13.0,13,0.00,,,0.00,,2013-02-24 06:21:00,
2013-02-24 00:31:00,52.0,3.0,29.67,WNW,284,5.0,13.0,13,0.00,,,0.00,,2013-02-24 06:31:00,
2013-02-24 00:52:00,52.0,3.0,29.64,WSW,237,3.0,13.0,13,0.00,,,0.00,,2013-02-24 06:52:00,
2013-02-24 01:01:00,52.0,3.0,29.64,WSW,237,3.0,13.0,13,0.00,,,0.00,,2013-02-24 07:01:00,
2013-02-24 01:12:00,52.0,3.0,29.64,WSW,237,3.0,13.0,13,0.00,,,0.00,,2013-02-24 07:12:00,
2013-02-24 01:21:00,53.0,5.0,29.63,SSW,199,7.0,13.0,14,0.00,,,0.00,,2013-02-24 07:21:00,
2013-02-24 01:42:00,53.0,5.0,29.63,SSW,199,7.0,13.0,14,0.00,,,0.00,,2013-02-24 07:42:00,
2013-02-24 01:52:00,53.0,5.0,29.63,SW,222,5.0,18.0,14,0.00,,,0.00,,2013-02-24 07:52:00,
2013-02-24 02:54:00,52.0,7.0,29.59,SW,235,5.0,16.0,16,0.00,,,0.00,,2013-02-24 08:54:00,
2013-02-24 03:21:00,51.0,6.0,29.59,WSW,237,5.0,13.0,16,0.00,,,0.00,,2013-02-24 09:21:00,
2013-02-24 03:31:00,51.0,6.0,29.59,WSW,237,5.0,13.0,16,0.00,,,0.00,,2013-02-24 09:31:00,
2013-02-24 03:42:00,51.0,6.0,29.59,WSW,237,5.0,13.0,16,0.00,,,0.00,,2013-02-24 09:42:00,
2013-02-24 03:52:00,51.0,6.0,29.59,WSW,237,5.0,13.0,16,0.00,,,0.00,,2013-02-24 09:52:00,
2013-02-24 04:01:00,51.0,6.0,29.59,WSW,237,5.0,13.0,16,0.00,,,0.00,,2013-02-24 10:01:00,
2013-02-24 04:22:00,51.0,6.0,29.57,WSW,251,5.0,12.0,16,0.00,,,0.00,,2013-02-24 10:22:00,
2013-02-24 04:32:00,51.0,6.0,29.57,WSW,251,5.0,12.0,16,0.00,,,0.00,,2013-02-24 10:32:00,
2013-02-24 04:42:00,51.0,6.0,29.57,WSW,251,5.0,12.0,16,0.00,,,0.00,,2013-02-24 10:42:00,
2013-02-24 04:52:00,51.0,6.0,29.57,WSW,246,5.0,12.0,16,0.00,,,0.00,,2013-02-24 10:52:00,
2013-02-24 05:01:00,51.0,6.0,29.57,WSW,246,5.0,12.0,16,0.00,,,0.00,,2013-02-24 11:01:00,
2013-02-24 05:11:00,51.0,6.0,29.57,WSW,246,5.0,12.0,16,0.00,,,0.00,,2013-02-24 11:11:00,
2013-02-24 05:21:00,50.0,7.0,29.57,SW,236,4.0,14.0,17,0.00,,,0.00,,2013-02-24 11:21:00,
2013-02-24 05:32:00,50.0,7.0,29.57,SW,236,4.0,14.0,17,0.00,,,0.00,,2013-02-24 11:32:00,
2013-02-24 05:42:00,50.0,7.0,29.57,SW,236,4.0,14.0,17,0.00,,,0.00,,2013-02-24 11:42:00,
2013-02-24 05:53:00,48.0,8.0,29.61,WNW,294,5.0,12.0,19,0.00,,,0.00,,2013-02-24 11:53:00,
2013-02-24 06:01:00,48.0,8.0,29.61,WNW,294,5.0,12.0,19,0.00,,,0.00,,2013-02-24 12:01:00,
2013-02-24 06:11:00,48.0,8.0,29.61,WNW,294,5.0,12.0,19,0.00,,,0.00,,2013-02-24 12:11:00,
2013-02-24 06:21:00,48.0,8.0,29.61,WNW,294,5.0,12.0,19,0.00,,,0.00,,2013-02-24 12:21:00,
2013-02-24 06:32:00,48.0,8.0,29.61,WNW,294,5.0,12.0,19,0.00,,,0.00,,2013-02-24 12:32:00,
2013-02-24 06:57:00,49.0,6.0,29.65,WSW,246,8.0,15.0,17,0.00,,,0.00,,2013-02-24 12:57:00,
2013-02-24 07:12:00,49.0,6.0,29.65,WSW,246,8.0,15.0,17,0.00,,,0.00,,2013-02-24 13:12:00,
2013-02-24 07:26:00,50.0,6.0,29.65,WSW,241,10.0,16.0,16,0.00,,,0.00,,2013-02-24 13:26:00,
2013-02-24 07:33:00,50.0,6.0,29.65,WSW,241,10.0,16.0,16,0.00,,,0.00,,2013-02-24 13:33:00,
2013-02-24 07:55:00,50.0,4.0,29.72,SW,234,9.0,18.0,15,0.00,,,0.00,,2013-02-24 13:55:00,
2013-02-24 08:13:00,50.0,4.0,29.72,SW,234,9.0,18.0,15,0.00,,,0.00,,2013-02-24 14:13:00,
2013-02-24 08:24:00,50.0,4.0,29.72,SW,234,9.0,18.0,15,0.00,,,0.00,,2013-02-24 14:24:00,
2013-02-24 08:33:00,50.0,4.0,29.72,SW,234,9.0,18.0,15,0.00,,,0.00,,2013-02-24 14:33:00,
2013-02-24 09:24:00,55.0,1.0,29.72,WSW,258,12.0,20.0,11,0.00,,,0.00,,2013-02-24 15:24:00,
2013-02-24 09:32:00,55.0,1.0,29.72,WSW,258,12.0,20.0,11,0.00,,,0.00,,2013-02-24 15:32:00,
2013-02-24 09:42:00,55.0,1.0,29.72,WSW,258,12.0,20.0,11,0.00,,,0.00,,2013-02-24 15:42:00,
2013-02-24 09:53:00,56.0,0.0,29.71,WNW,285,10.0,24.0,10,0.00,,,0.00,,2013-02-24 15:53:00,
2013-02-24 10:01:00,56.0,0.0,29.71,WNW,285,10.0,24.0,10,0.00,,,0.00,,2013-02-24 16:01:00,
2013-02-24 10:11:00,56.0,0.0,29.71,WNW,285,10.0,24.0,10,0.00,,,0.00,,2013-02-24 16:11:00,
2013-02-24 10:21:00,57.0,1.0,29.71,WSW,252,12.0,26.0,10,0.00,,,0.00,,2013-02-24 16:21:00,
2013-02-24 10:32:00,57.0,1.0,29.71,WSW,252,12.0,26.0,10,0.00,,,0.00,,2013-02-24 16:32:00,
2013-02-24 10:42:00,57.0,1.0,29.71,WSW,252,12.0,26.0,10,0.00,,,0.00,,2013-02-24 16:42:00,
2013-02-24 10:52:00,57.0,1.0,29.68,West,267,10.0,26.0,10,0.00,,,0.00,,2013-02-24 16:52:00,
2013-02-24 11:01:00,57.0,1.0,29.68,West,267,10.0,26.0,10,0.00,,,0.00,,2013-02-24 17:01:00,
2013-02-24 11:11:00,57.0,1.0,29.68,West,267,10.0,26.0,10,0.00,,,0.00,,2013-02-24 17:11:00,
2013-02-24 11:21:00,59.0,3.0,29.66,SW,222,10.0,26.0,10,0.00,,,0.00,,2013-02-24 17:21:00,
2013-02-24 11:32:00,59.0,3.0,29.66,SW,222,10.0,26.0,10,0.00,,,0.00,,2013-02-24 17:32:00,
2013-02-24 11:42:00,59.0,3.0,29.66,SW,222,10.0,26.0,10,0.00,,,0.00,,2013-02-24 17:42:00,
2013-02-24 11:53:00,60.0,1.0,29.53,WSW,255,9.0,20.0,9,0.00,,,0.00,,2013-02-24 17:53:00,
2013-02-24 12:01:00,60.0,1.0,29.53,WSW,255,9.0,20.0,9,0.00,,,0.00,,2013-02-24 18:01:00,
2013-02-24 12:11:00,60.0,1.0,29.53,WSW,255,9.0,20.0,9,0.00,,,0.00,,2013-02-24 18:11:00,
2013-02-24 12:22:00,60.0,1.0,29.52,SSW,206,14.0,26.0,9,0.00,,,0.00,,2013-02-24 18:22:00,
2013-02-24 12:32:00,60.0,1.0,29.52,SSW,206,14.0,26.0,9,0.00,,,0.00,,2013-02-24 18:32:00,
2013-02-24 12:42:00,60.0,1.0,29.52,SSW,206,14.0,26.0,9,0.00,,,0.00,,2013-02-24 18:42:00,
2013-02-24 12:52:00,60.0,1.0,29.49,SW,234,11.0,22.0,9,0.00,,,0.00,,2013-02-24 18:52:00,
2013-02-24 13:01:00,60.0,1.0,29.49,SW,234,11.0,22.0,9,0.00,,,0.00,,2013-02-24 19:01:00,
2013-02-24 13:11:00,60.0,1.0,29.49,SW,234,11.0,22.0,9,0.00,,,0.00,,2013-02-24 19:11:00,
2013-02-24 13:22:00,62.0,3.0,29.46,SSW,196,6.0,18.0,9,0.00,,,0.00,,2013-02-24 19:22:00,
2013-02-24 13:32:00,62.0,3.0,29.46,SSW,196,6.0,18.0,9,0.00,,,0.00,,2013-02-24 19:32:00,
2013-02-24 13:42:00,62.0,3.0,29.46,SSW,196,6.0,18.0,9,0.00,,,0.00,,2013-02-24 19:42:00,
2013-02-24 13:52:00,62.0,3.0,29.46,SW,215,11.0,20.0,9,0.00,,,0.00,,2013-02-24 19:52:00,
2013-02-24 14:02:00,62.0,3.0,29.46,SW,215,11.0,20.0,9,0.00,,,0.00,,2013-02-24 20:02:00,
2013-02-24 14:11:00,62.0,3.0,29.46,SW,215,11.0,20.0,9,0.00,,,0.00,,2013-02-24 20:11:00,
2013-02-24 14:21:00,62.0,5.0,29.44,SSW,209,9.0,20.0,10,0.00,,,0.00,,2013-02-24 20:21:00,
2013-02-24 14:32:00,62.0,5.0,29.44,SSW,209,9.0,20.0,10,0.00,,,0.00,,2013-02-24 20:32:00,
2013-02-24 14:42:00,62.0,5.0,29.44,SSW,209,9.0,20.0,10,0.00,,,0.00,,2013-02-24 20:42:00,
2013-02-24 14:52:00,62.0,3.0,29.40,SW,220,7.0,22.0,9,0.00,,,0.00,,2013-02-24 20:52:00,
2013-02-24 15:01:00,62.0,3.0,29.40,SW,220,7.0,22.0,9,0.00,,,0.00,,2013-02-24 21:01:00,
2013-02-24 15:11:00,62.0,3.0,29.40,SW,220,7.0,22.0,9,0.00,,,0.00,,2013-02-24 21:11:00,
2013-02-24 15:21:00,63.0,3.0,29.38,SSW,210,13.0,22.0,9,0.00,,,0.00,,2013-02-24 21:21:00,
2013-02-24 15:32:00,63.0,3.0,29.38,SSW,210,13.0,22.0,9,0.00,,,0.00,,2013-02-24 21:32:00,
2013-02-24 15:42:00,63.0,3.0,29.38,SSW,210,13.0,22.0,9,0.00,,,0.00,,2013-02-24 21:42:00,
2013-02-24 15:52:00,64.0,4.0,29.36,SSW,213,10.0,26.0,9,0.00,,,0.00,,2013-02-24 21:52:00,
2013-02-24 16:01:00,64.0,4.0,29.36,SSW,213,10.0,26.0,9,0.00,,,0.00,,2013-02-24 22:01:00,
2013-02-24 16:11:00,64.0,4.0,29.36,SSW,213,10.0,26.0,9,0.00,,,0.00,,2013-02-24 22:11:00,
2013-02-24 16:21:00,64.0,4.0,29.36,SSW,213,10.0,26.0,9,0.00,,,0.00,,2013-02-24 22:21:00,
2013-02-24 16:31:00,64.0,4.0,29.36,SSW,213,10.0,26.0,9,0.00,,,0.00,,2013-02-24 22:31:00,
2013-02-24 16:52:00,64.0,-1.0,29.36,North,350,10.0,24.0,7,0.00,,,0.00,,2013-02-24 22:52:00,
2013-02-24 17:02:00,64.0,-1.0,29.36,North,350,10.0,24.0,7,0.00,,,0.00,,2013-02-24 23:02:00,
2013-02-24 17:11:00,64.0,-1.0,29.36,North,350,10.0,24.0,7,0.00,,,0.00,,2013-02-24 23:11:00,
2013-02-24 17:21:00,63.0,-5.0,29.36,SW,223,12.0,31.0,6,0.00,,,0.00,,2013-02-24 23:21:00,
2013-02-24 17:31:00,63.0,-5.0,29.36,SW,223,12.0,31.0,6,0.00,,,0.00,,2013-02-24 23:31:00,
2013-02-24 17:42:00,63.0,-5.0,29.36,SW,223,12.0,31.0,6,0.00,,,0.00,,2013-02-24 23:42:00,
2013-02-24 17:52:00,63.0,-5.0,29.36,SW,223,12.0,31.0,6,0.00,,,0.00,,2013-02-24 23:52:00,
2013-02-24 18:01:00,63.0,-5.0,29.36,SW,223,12.0,31.0,6,0.00,,,0.00,,2013-02-25 00:01:00,
2013-02-24 18:22:00,60.0,-4.0,29.40,SW,232,5.0,22.0,7,0.00,,,0.00,,2013-02-25 00:22:00,
2013-02-24 18:32:00,60.0,-4.0,29.40,SW,232,5.0,22.0,7,0.00,,,0.00,,2013-02-25 00:32:00,
2013-02-24 18:42:00,60.0,-4.0,29.40,SW,232,5.0,22.0,7,0.00,,,0.00,,2013-02-25 00:42:00,
2013-02-24 18:52:00,60.0,-4.0,29.40,SW,232,5.0,22.0,7,0.00,,,0.00,,2013-02-25 00:52:00,
2013-02-24 19:01:00,60.0,-4.0,29.40,SW,232,5.0,22.0,7,0.00,,,0.00,,2013-02-25 01:01:00,
2013-02-24 19:21:00,57.0,1.0,29.44,WNW,284,5.0,21.0,10,0.00,,,0.00,,2013-02-25 01:21:00,
2013-02-24 19:32:00,57.0,1.0,29.44,WNW,284,5.0,21.0,10,0.00,,,0.00,,2013-02-25 01:32:00,
2013-02-24 19:42:00,57.0,1.0,29.44,WNW,284,5.0,21.0,10,0.00,,,0.00,,2013-02-25 01:42:00,
2013-02-24 19:52:00,55.0,1.0,29.45,SW,232,7.0,18.0,11,0.00,,,0.00,,2013-02-25 01:52:00,
2013-02-24 20:01:00,55.0,1.0,29.45,SW,232,7.0,18.0,11,0.00,,,0.00,,2013-02-25 02:01:00,
2013-02-24 20:11:00,55.0,1.0,29.45,SW,232,7.0,18.0,11,0.00,,,0.00,,2013-02-25 02:11:00,
2013-02-24 20:21:00,52.0,10.0,29.48,WNW,295,5.0,17.0,18,0.00,,,0.00,,2013-02-25 02:21:00,
2013-02-24 20:31:00,52.0,10.0,29.48,WNW,295,5.0,17.0,18,0.00,,,0.00,,2013-02-25 02:31:00,
2013-02-24 20:42:00,52.0,10.0,29.48,WNW,295,5.0,17.0,18,0.00,,,0.00,,2013-02-25 02:42:00,
2013-02-24 20:52:00,47.0,15.0,29.51,NNW,333,5.0,12.0,27,0.00,,,0.00,,2013-02-25 02:52:00,
2013-02-24 21:11:00,47.0,15.0,29.51,NNW,333,5.0,12.0,27,0.00,,,0.00,,2013-02-25 03:11:00,
2013-02-24 21:21:00,41.0,16.0,29.59,South,178,2.0,18.0,36,0.00,,,0.00,,2013-02-25 03:21:00,
2013-02-24 21:42:00,41.0,16.0,29.59,South,178,2.0,18.0,36,0.00,,,0.00,,2013-02-25 03:42:00,
2013-02-24 21:52:00,38.0,13.0,29.63,SSW,193,6.0,20.0,35,0.00,,,0.00,,2013-02-25 03:52:00,
2013-02-24 22:01:00,38.0,13.0,29.63,SSW,193,6.0,20.0,35,0.00,,,0.00,,2013-02-25 04:01:00,
2013-02-24 22:11:00,38.0,13.0,29.63,SSW,193,6.0,20.0,35,0.00,,,0.00,,2013-02-25 04:11:00,
2013-02-24 22:21:00,36.0,8.0,29.66,WSW,241,6.0,20.0,31,0.00,,,0.00,,2013-02-25 04:21:00,
2013-02-24 22:42:00,36.0,8.0,29.66,WSW,241,6.0,20.0,31,0.00,,,0.00,,2013-02-25 04:42:00,
2013-02-24 22:52:00,34.0,3.0,29.67,SSW,195,5.0,26.0,26,0.00,,,0.00,,2013-02-25 04:52:00,
2013-02-24 23:11:00,34.0,3.0,29.67,SSW,195,5.0,26.0,26,0.00,,,0.00,,2013-02-25 05:11:00,
2013-02-24 23:22:00,33.0,-1.0,29.67,WSW,244,9.0,35.0,23,0.00,,,0.00,,2013-02-25 05:22:00,
2013-02-24 23:31:00,33.0,-1.0,29.67,WSW,244,9.0,35.0,23,0.00,,,0.00,,2013-02-25 05:31:00,
2013-02-24 23:42:00,33.0,-1.0,29.67,WSW,244,9.0,35.0,23,0.00,,,0.00,,2013-02-25 05:42:00,
2013-02-24 23:52:00,33.0,0.0,29.67,South,191,6.0,25.0,24,0.00,,,0.00,,2013-02-25 05:52:00,